createdAt,value
2023-03-29T00:00:44.162Z,7.15
2023-03-29T00:03:05.965Z,7.16
2023-03-29T00:05:27.898Z,7.16
2023-03-29T00:07:54.121Z,7.16
2023-03-29T00:10:15.945Z,7.14
2023-03-29T00:12:40.954Z,7.13
2023-03-29T00:15:04.839Z,7.14
2023-03-29T00:17:26.567Z,7.15
2023-03-29T00:19:49.100Z,7.18
2023-03-29T00:22:10.746Z,7.17
2023-03-29T00:24:32.348Z,7.17
2023-03-29T00:26:54.999Z,7.16
2023-03-29T00:29:16.741Z,7.19
2023-03-29T00:31:38.478Z,7.20
2023-03-29T00:34:01.428Z,7.18
2023-03-29T00:36:24.063Z,7.20
2023-03-29T00:38:46.478Z,7.20
2023-03-29T00:41:09.496Z,7.24
2023-03-29T00:43:31.229Z,7.27
2023-03-29T00:45:52.948Z,7.28
2023-03-29T00:48:23.919Z,7.32
2023-03-29T00:51:08.215Z,7.33
2023-03-29T00:53:56.022Z,7.33
2023-03-29T00:56:26.363Z,7.31
2023-03-29T00:59:07.105Z,7.35
2023-03-29T01:01:42.043Z,7.34
2023-03-29T01:04:18.588Z,7.34
2023-03-29T01:06:43.478Z,7.34
2023-03-29T01:09:12.621Z,7.35
2023-03-29T01:11:46.522Z,7.38
2023-03-29T01:14:26.594Z,7.40
2023-03-29T01:16:48.430Z,7.36
2023-03-29T01:19:18.200Z,7.34
2023-03-29T01:21:51.513Z,7.36
2023-03-29T01:24:53.164Z,7.40
2023-03-29T01:27:58.327Z,7.43
2023-03-29T01:30:37.348Z,7.42
2023-03-29T01:33:07.518Z,7.37
2023-03-29T01:35:44.674Z,7.36
2023-03-29T01:38:18.224Z,7.32
2023-03-29T01:40:40.128Z,7.33
2023-03-29T01:43:26.070Z,7.34
2023-03-29T01:46:35.475Z,7.39
2023-03-29T01:49:12.490Z,7.35
2023-03-29T01:51:52.231Z,7.37
2023-03-29T01:54:39.423Z,7.37
2023-03-29T01:57:05.801Z,7.37
2023-03-29T01:59:33.199Z,7.41
2023-03-29T02:02:00.811Z,7.40
2023-03-29T02:04:32.504Z,7.40
2023-03-29T02:06:59.417Z,7.40
2023-03-29T02:09:22.366Z,7.39
2023-03-29T02:11:45.373Z,7.40
2023-03-29T02:14:07.462Z,7.41
2023-03-29T02:16:36.818Z,7.40
2023-03-29T02:18:58.713Z,7.38
2023-03-29T02:21:31.748Z,7.41
2023-03-29T02:23:57.138Z,7.40
2023-03-29T02:26:19.595Z,7.43
2023-03-29T02:28:42.975Z,7.43
2023-03-29T02:31:20.228Z,7.46
2023-03-29T02:34:24.467Z,7.46
2023-03-29T02:36:52.667Z,7.45
2023-03-29T02:39:16.931Z,7.41
2023-03-29T02:41:42.150Z,7.40
2023-03-29T02:44:08.328Z,7.36
2023-03-29T02:46:30.927Z,7.35
2023-03-29T02:48:55.575Z,7.36
2023-03-29T02:51:23.570Z,7.36
2023-03-29T02:53:54.531Z,7.35
2023-03-29T02:56:17.064Z,7.34
2023-03-29T02:58:38.711Z,7.36
2023-03-29T03:01:02.587Z,7.41
2023-03-29T03:03:25.475Z,7.40
2023-03-29T03:05:47.725Z,7.44
2023-03-29T03:08:09.950Z,7.44
2023-03-29T03:10:33.766Z,7.46
2023-03-29T03:12:56.746Z,7.47
2023-03-29T03:15:19.725Z,7.51
2023-03-29T03:17:41.650Z,7.50
2023-03-29T03:20:04.658Z,7.52
2023-03-29T03:22:26.474Z,7.54
2023-03-29T03:24:49.313Z,7.56
2023-03-29T03:27:11.790Z,7.56
2023-03-29T03:29:33.539Z,7.57
2023-03-29T03:32:13.853Z,7.60
2023-03-29T03:34:56.012Z,7.59
2023-03-29T03:37:20.704Z,7.57
2023-03-29T03:39:42.317Z,7.60
2023-03-29T03:42:08.223Z,7.58
2023-03-29T03:44:33.970Z,7.59
2023-03-29T03:47:14.602Z,7.59
2023-03-29T03:49:37.495Z,7.59
2023-03-29T03:51:59.877Z,7.60
2023-03-29T03:54:21.703Z,7.64
2023-03-29T03:57:22.861Z,7.64
2023-03-29T03:59:46.574Z,7.65
2023-03-29T04:02:13.477Z,7.64
2023-03-29T04:04:35.281Z,7.63
2023-03-29T04:07:14.337Z,7.63
2023-03-29T04:09:59.473Z,7.65
2023-03-29T04:12:39.771Z,7.65
2023-03-29T04:15:03.610Z,7.67
2023-03-29T04:17:25.672Z,7.67
2023-03-29T04:19:53.277Z,7.67
2023-03-29T04:22:14.967Z,7.67
2023-03-29T04:24:37.580Z,7.67
2023-03-29T04:27:25.600Z,7.67
2023-03-29T04:29:48.890Z,7.69
2023-03-29T04:32:21.100Z,7.68
2023-03-29T04:34:56.527Z,7.72
2023-03-29T04:37:21.989Z,7.76
2023-03-29T04:39:46.510Z,7.80
2023-03-29T04:42:09.378Z,7.80
2023-03-29T04:44:33.626Z,7.80
2023-03-29T04:46:55.928Z,7.80
2023-03-29T04:49:37.733Z,7.82
2023-03-29T04:52:04.053Z,7.84
2023-03-29T04:54:26.372Z,7.88
2023-03-29T04:56:56.804Z,7.88
2023-03-29T04:59:29.140Z,7.92
2023-03-29T05:01:51.173Z,7.89
2023-03-29T05:04:14.122Z,7.91
2023-03-29T05:06:46.854Z,7.89
2023-03-29T05:09:08.834Z,7.88
2023-03-29T05:11:40.927Z,7.89
2023-03-29T05:14:03.407Z,7.92
2023-03-29T05:16:30.174Z,7.96
2023-03-29T05:18:52.729Z,7.96
2023-03-29T05:21:14.745Z,7.95
2023-03-29T05:23:39.601Z,7.94
2023-03-29T05:26:20.325Z,7.97
2023-03-29T05:28:46.005Z,8.02
2023-03-29T05:31:08.563Z,8.04
2023-03-29T05:33:33.713Z,8.07
2023-03-29T05:36:05.382Z,8.09
2023-03-29T05:38:29.748Z,8.10
2023-03-29T05:40:52.894Z,8.12
2023-03-29T05:43:47.710Z,8.14
2023-03-29T05:46:12.608Z,8.18
2023-03-29T05:48:42.751Z,8.21
2023-03-29T05:51:05.462Z,8.23
2023-03-29T05:53:28.317Z,8.28
2023-03-29T05:55:51.305Z,8.28
2023-03-29T05:58:18.094Z,8.27
2023-03-29T06:00:41.300Z,8.31
2023-03-29T06:03:25.461Z,8.33
2023-03-29T06:05:57.456Z,8.37
2023-03-29T06:08:19.375Z,8.38
2023-03-29T06:11:06.132Z,8.43
2023-03-29T06:14:04.139Z,8.47
2023-03-29T06:16:26.614Z,8.47
2023-03-29T06:18:48.722Z,8.51
2023-03-29T06:21:10.759Z,8.55
2023-03-29T06:23:33.189Z,8.58
2023-03-29T06:25:55.509Z,8.61
2023-03-29T06:28:19.196Z,8.64
2023-03-29T06:30:42.053Z,8.65
2023-03-29T06:33:07.055Z,8.66
2023-03-29T06:35:46.983Z,8.70
2023-03-29T06:38:12.012Z,8.73
2023-03-29T06:40:59.736Z,8.74
2023-03-29T06:43:22.980Z,8.79
2023-03-29T06:45:54.428Z,8.80
2023-03-29T06:48:36.661Z,8.84
2023-03-29T06:50:59.230Z,8.87
2023-03-29T06:53:23.874Z,8.92
2023-03-29T06:55:53.997Z,8.97
2023-03-29T06:58:45.136Z,9.01
2023-03-29T07:01:27.128Z,9.08
2023-03-29T07:03:54.784Z,9.13
2023-03-29T07:06:24.811Z,9.21
2023-03-29T07:08:51.842Z,9.26
2023-03-29T07:11:26.155Z,9.34
2023-03-29T07:13:51.213Z,9.44
2023-03-29T07:16:14.910Z,9.51
2023-03-29T07:18:51.245Z,9.57
2023-03-29T07:21:38.040Z,9.63
2023-03-29T07:24:00.305Z,9.70
2023-03-29T07:26:28.299Z,9.78
2023-03-29T07:28:51.759Z,9.83
2023-03-29T07:31:13.486Z,9.89
2023-03-29T07:33:40.891Z,9.95
2023-03-29T07:36:06.034Z,9.99
2023-03-29T07:38:29.905Z,10.04
2023-03-29T07:41:12.329Z,10.10
2023-03-29T07:43:41.733Z,10.16
2023-03-29T07:46:06.557Z,10.20
2023-03-29T07:48:30.314Z,10.21
2023-03-29T07:50:55.991Z,10.21
2023-03-29T07:53:23.535Z,10.22
2023-03-29T07:55:49.824Z,10.30
2023-03-29T07:58:43.623Z,10.35
2023-03-29T08:01:08.362Z,10.42
2023-03-29T08:03:56.011Z,10.46
2023-03-29T08:06:30.937Z,10.49
2023-03-29T08:08:52.737Z,10.51
2023-03-29T08:11:15.247Z,10.55
2023-03-29T08:13:52.052Z,10.60
2023-03-29T08:16:36.913Z,10.63
2023-03-29T08:19:07.160Z,10.66
2023-03-29T08:21:43.582Z,10.73
2023-03-29T08:24:06.159Z,10.73
2023-03-29T08:26:41.912Z,10.70
2023-03-29T08:29:04.010Z,10.73
2023-03-29T08:31:26.118Z,10.72
2023-03-29T08:33:47.993Z,10.72
2023-03-29T08:36:40.474Z,10.73
2023-03-29T08:39:22.694Z,10.81
2023-03-29T08:42:30.463Z,10.88
2023-03-29T08:45:14.068Z,10.88
2023-03-29T08:47:51.439Z,10.94
2023-03-29T08:50:15.809Z,10.97
2023-03-29T08:52:51.675Z,10.95
2023-03-29T08:55:42.701Z,10.94
2023-03-29T08:58:34.762Z,10.98
2023-03-29T09:01:00.854Z,10.97
2023-03-29T09:04:09.034Z,10.96
2023-03-29T09:06:43.131Z,10.96
2023-03-29T09:09:19.812Z,11.04
2023-03-29T09:12:12.391Z,11.18
2023-03-29T09:14:52.571Z,11.33
2023-03-29T09:17:39.118Z,11.49
2023-03-29T09:20:18.988Z,11.63
2023-03-29T09:23:07.221Z,11.73
2023-03-29T09:26:06.759Z,11.83
2023-03-29T09:29:19.836Z,11.94
2023-03-29T09:31:44.791Z,12.06
2023-03-29T09:34:23.014Z,12.16
2023-03-29T09:37:15.778Z,12.21
2023-03-29T09:39:40.943Z,12.25
2023-03-29T09:42:09.373Z,12.34
2023-03-29T09:44:40.137Z,12.39
2023-03-29T09:47:23.310Z,12.42
2023-03-29T09:49:52.229Z,12.43
2023-03-29T09:52:18.209Z,12.46
2023-03-29T09:54:49.577Z,12.41
2023-03-29T09:57:47.177Z,12.43
2023-03-29T10:00:13.909Z,12.43
2023-03-29T10:02:36.169Z,12.55
2023-03-29T10:05:01.044Z,12.65
2023-03-29T10:07:23.900Z,12.70
2023-03-29T10:09:58.867Z,12.70
2023-03-29T10:12:21.469Z,12.68
2023-03-29T10:14:50.290Z,12.68
2023-03-29T10:17:28.008Z,12.73
2023-03-29T10:20:05.633Z,12.74
2023-03-29T10:22:37.862Z,12.69
2023-03-29T10:25:00.203Z,12.63
2023-03-29T10:27:34.863Z,12.56
2023-03-29T10:30:13.076Z,12.39
2023-03-29T10:32:37.772Z,12.25
2023-03-29T10:35:35.477Z,12.14
2023-03-29T10:38:00.489Z,12.12
2023-03-29T10:40:30.908Z,12.17
2023-03-29T10:42:57.657Z,12.23
2023-03-29T10:45:41.472Z,12.24
2023-03-29T10:48:06.937Z,12.24
2023-03-29T10:50:37.056Z,12.30
2023-03-29T10:52:59.092Z,12.37
2023-03-29T10:55:26.276Z,12.44
2023-03-29T10:58:25.254Z,12.53
2023-03-29T11:00:56.303Z,12.53
2023-03-29T11:03:40.575Z,12.53
2023-03-29T11:06:12.676Z,12.52
2023-03-29T11:09:01.539Z,12.54
2023-03-29T11:11:48.975Z,12.57
2023-03-29T11:14:33.036Z,12.66
2023-03-29T11:17:20.743Z,12.85
2023-03-29T11:20:12.502Z,13.04
2023-03-29T11:22:47.659Z,13.32
2023-03-29T11:25:46.718Z,13.44
2023-03-29T11:28:38.962Z,13.43
2023-03-29T11:31:38.572Z,13.43
2023-03-29T11:34:42.154Z,13.42
2023-03-29T11:37:11.246Z,13.39
2023-03-29T11:40:07.553Z,13.47
2023-03-29T11:42:35.011Z,13.51
2023-03-29T11:45:01.767Z,13.53
2023-03-29T11:47:37.111Z,13.48
2023-03-29T11:50:23.578Z,13.42
2023-03-29T11:52:51.421Z,13.43
2023-03-29T11:55:28.727Z,13.48
2023-03-29T11:58:05.715Z,13.52
2023-03-29T12:00:51.951Z,13.50
2023-03-29T12:03:44.769Z,13.50
2023-03-29T12:06:23.743Z,13.56
2023-03-29T12:09:01.280Z,13.66
2023-03-29T12:11:29.577Z,13.75
2023-03-29T12:13:59.847Z,13.83
2023-03-29T12:16:34.333Z,13.92
2023-03-29T12:19:01.363Z,13.98
2023-03-29T12:21:28.623Z,14.02
2023-03-29T12:23:51.824Z,14.04
2023-03-29T12:26:58.531Z,14.06
2023-03-29T12:30:03.689Z,14.01
2023-03-29T12:32:37.136Z,13.93
2023-03-29T12:35:55.703Z,13.92
2023-03-29T12:38:56.063Z,13.82
2023-03-29T12:41:38.228Z,13.77
2023-03-29T12:44:24.570Z,13.79
2023-03-29T12:46:54.689Z,13.80
2023-03-29T12:49:35.943Z,13.85
2023-03-29T12:52:02.836Z,13.89
2023-03-29T12:54:30.703Z,13.97
2023-03-29T12:56:52.390Z,14.01
2023-03-29T12:59:46.820Z,14.07
2023-03-29T13:02:14.662Z,14.14
2023-03-29T13:04:58.714Z,14.28
2023-03-29T13:07:23.647Z,14.37
2023-03-29T13:10:08.234Z,14.45
2023-03-29T13:12:49.517Z,14.60
2023-03-29T13:15:14.380Z,14.74
2023-03-29T13:18:14.187Z,14.89
2023-03-29T13:20:53.310Z,15.06
2023-03-29T13:23:48.683Z,15.14
2023-03-29T13:26:34.259Z,15.30
2023-03-29T13:29:38.722Z,15.48
2023-03-29T13:32:43.571Z,15.69
2023-03-29T13:35:17.106Z,15.77
2023-03-29T13:38:19.732Z,15.86
2023-03-29T13:40:47.641Z,15.90
2023-03-29T13:43:21.649Z,15.91
2023-03-29T13:45:43.329Z,15.94
2023-03-29T13:48:24.716Z,15.97
2023-03-29T13:51:04.990Z,16.03
2023-03-29T13:53:55.102Z,16.03
2023-03-29T13:56:25.054Z,15.99
2023-03-29T13:59:05.635Z,16.04
2023-03-29T14:01:38.892Z,16.04
2023-03-29T14:04:01.798Z,16.07
2023-03-29T14:06:31.282Z,16.10
2023-03-29T14:08:53.841Z,16.11
2023-03-29T14:11:24.903Z,16.16
2023-03-29T14:13:47.383Z,16.17
2023-03-29T14:16:12.076Z,16.19
2023-03-29T14:18:40.281Z,16.24
2023-03-29T14:21:02.047Z,16.29
2023-03-29T14:23:30.095Z,16.32
2023-03-29T14:25:52.069Z,16.37
2023-03-29T14:28:28.866Z,16.45
2023-03-29T14:30:52.798Z,16.51
2023-03-29T14:33:14.840Z,16.51
2023-03-29T14:35:36.955Z,16.54
2023-03-29T14:38:00.613Z,16.56
2023-03-29T14:40:22.869Z,16.56
2023-03-29T14:42:47.453Z,16.52
2023-03-29T14:45:13.458Z,16.50
2023-03-29T14:47:36.841Z,16.43
2023-03-29T14:50:01.763Z,16.41
2023-03-29T14:52:24.250Z,16.42
2023-03-29T14:54:51.965Z,16.44
2023-03-29T14:57:18.599Z,16.46
2023-03-29T14:59:48.519Z,16.51
2023-03-29T15:02:33.236Z,16.53
2023-03-29T15:05:07.637Z,16.50
2023-03-29T15:07:30.352Z,16.48
2023-03-29T15:09:52.227Z,16.49
2023-03-29T15:12:16.738Z,16.48
2023-03-29T15:14:38.406Z,16.45
2023-03-29T15:17:22.615Z,16.43
2023-03-29T15:19:44.338Z,16.43
2023-03-29T15:22:11.313Z,16.53
2023-03-29T15:24:33.963Z,16.63
2023-03-29T15:27:03.551Z,16.73
2023-03-29T15:29:38.488Z,16.83
2023-03-29T15:32:00.283Z,16.86
2023-03-29T15:34:29.324Z,16.89
2023-03-29T15:36:52.066Z,16.95
2023-03-29T15:39:20.074Z,17.00
2023-03-29T15:41:43.418Z,17.02
2023-03-29T15:44:05.673Z,16.96
2023-03-29T15:46:27.486Z,16.90
2023-03-29T15:48:49.321Z,16.88
2023-03-29T15:51:13.142Z,16.89
2023-03-29T15:53:35.898Z,16.84
2023-03-29T15:56:02.418Z,16.79
2023-03-29T15:58:30.754Z,16.68
2023-03-29T16:01:02.619Z,16.63
2023-03-29T16:03:27.532Z,16.57
2023-03-29T16:05:49.645Z,16.53
2023-03-29T16:08:12.732Z,16.50
2023-03-29T16:10:34.618Z,16.43
2023-03-29T16:12:57.286Z,16.33
2023-03-29T16:15:24.426Z,16.27
2023-03-29T16:17:46.318Z,16.23
2023-03-29T16:20:10.255Z,16.18
2023-03-29T16:22:32.286Z,16.14
2023-03-29T16:24:54.007Z,16.12
2023-03-29T16:27:16.955Z,16.09
2023-03-29T16:29:38.762Z,16.09
2023-03-29T16:32:01.044Z,16.02
2023-03-29T16:34:23.365Z,15.99
2023-03-29T16:36:47.915Z,15.98
2023-03-29T16:39:13.801Z,15.95
2023-03-29T16:41:35.671Z,15.90
2023-03-29T16:43:58.007Z,15.87
2023-03-29T16:46:19.835Z,15.89
2023-03-29T16:48:42.703Z,15.90
2023-03-29T16:51:05.370Z,15.90
2023-03-29T16:53:28.542Z,15.89
2023-03-29T16:55:50.850Z,15.89
2023-03-29T16:58:12.576Z,15.91
2023-03-29T17:00:34.832Z,15.93
2023-03-29T17:02:56.712Z,15.92
2023-03-29T17:05:19.132Z,15.92
2023-03-29T17:07:40.909Z,15.90
2023-03-29T17:10:07.244Z,15.89
2023-03-29T17:12:28.919Z,15.86
2023-03-29T17:14:51.135Z,15.85
2023-03-29T17:17:12.741Z,15.82
2023-03-29T17:19:34.384Z,15.81
2023-03-29T17:21:56.125Z,15.77
2023-03-29T17:24:17.846Z,15.73
2023-03-29T17:26:40.197Z,15.71
2023-03-29T17:29:01.967Z,15.66
2023-03-29T17:31:23.697Z,15.62
2023-03-29T17:33:45.374Z,15.57
2023-03-29T17:36:07.921Z,15.53
2023-03-29T17:38:30.727Z,15.48
2023-03-29T17:40:55.880Z,15.42
2023-03-29T17:43:17.624Z,15.36
2023-03-29T17:45:40.122Z,15.31
2023-03-29T17:48:04.113Z,15.26
2023-03-29T17:50:27.378Z,15.21
2023-03-29T17:52:49.896Z,15.18
2023-03-29T17:55:13.736Z,15.14
2023-03-29T17:57:36.301Z,15.11
2023-03-29T17:59:57.898Z,15.06
2023-03-29T18:02:24.593Z,15.03
2023-03-29T18:04:46.346Z,14.98
2023-03-29T18:07:08.095Z,14.96
2023-03-29T18:09:30.920Z,14.92
2023-03-29T18:11:52.792Z,14.90
2023-03-29T18:14:14.553Z,14.86
2023-03-29T18:16:36.330Z,14.84
2023-03-29T18:18:58.331Z,14.82
2023-03-29T18:21:20.287Z,14.76
2023-03-29T18:23:47.250Z,14.73
2023-03-29T18:26:09.452Z,14.70
2023-03-29T18:28:31.607Z,14.65
2023-03-29T18:30:53.414Z,14.62
2023-03-29T18:33:15.146Z,14.57
2023-03-29T18:35:37.182Z,14.52
2023-03-29T18:37:59.221Z,14.52
2023-03-29T18:40:24.730Z,14.51
2023-03-29T18:42:46.875Z,14.50
2023-03-29T18:45:10.134Z,14.48
2023-03-29T18:47:33.272Z,14.47
2023-03-29T18:49:55.227Z,14.45
2023-03-29T18:52:16.934Z,14.43
2023-03-29T18:54:38.884Z,14.43
2023-03-29T18:57:01.191Z,14.43
2023-03-29T18:59:23.833Z,14.42
2023-03-29T19:01:45.988Z,14.41
2023-03-29T19:04:07.746Z,14.42
2023-03-29T19:06:29.703Z,14.40
2023-03-29T19:08:51.727Z,14.39
2023-03-29T19:11:16.332Z,14.37
2023-03-29T19:13:38.089Z,14.34
2023-03-29T19:16:00.071Z,14.32
2023-03-29T19:18:21.961Z,14.33
2023-03-29T19:20:43.929Z,14.32
2023-03-29T19:23:06.184Z,14.29
2023-03-29T19:25:29.026Z,14.28
2023-03-29T19:27:50.761Z,14.27
2023-03-29T19:30:13.160Z,14.29
2023-03-29T19:32:34.950Z,14.30
2023-03-29T19:34:56.616Z,14.32
2023-03-29T19:37:19.205Z,14.33
2023-03-29T19:39:41.529Z,14.33
2023-03-29T19:42:03.311Z,14.30
2023-03-29T19:44:25.281Z,14.29
2023-03-29T19:46:46.966Z,14.28
2023-03-29T19:49:13.447Z,14.28
2023-03-29T19:51:35.404Z,14.25
2023-03-29T19:53:58.165Z,14.24
2023-03-29T19:56:20.759Z,14.21
2023-03-29T19:58:42.394Z,14.19
2023-03-29T20:01:04.328Z,14.16
2023-03-29T20:03:29.889Z,14.10
2023-03-29T20:05:51.747Z,14.06
2023-03-29T20:08:13.447Z,13.99
2023-03-29T20:10:35.977Z,13.94
2023-03-29T20:12:57.599Z,13.89
2023-03-29T20:15:19.383Z,13.86
2023-03-29T20:17:41.014Z,13.80
2023-03-29T20:20:08.252Z,13.77
2023-03-29T20:22:31.339Z,13.76
2023-03-29T20:24:53.120Z,13.74
2023-03-29T20:27:15.843Z,13.73
2023-03-29T20:29:37.930Z,13.73
2023-03-29T20:31:59.755Z,13.71
2023-03-29T20:34:22.460Z,13.69
2023-03-29T20:36:45.281Z,13.68
2023-03-29T20:39:08.193Z,13.68
2023-03-29T20:41:31.493Z,13.66
2023-03-29T20:43:58.441Z,13.65
2023-03-29T20:46:23.824Z,13.61
2023-03-29T20:48:54.504Z,13.59
2023-03-29T20:51:18.257Z,13.57
2023-03-29T20:53:42.829Z,13.53
2023-03-29T20:56:06.393Z,13.50
2023-03-29T20:58:29.119Z,13.47
2023-03-29T21:00:50.756Z,13.42
2023-03-29T21:03:12.469Z,13.40
2023-03-29T21:05:34.334Z,13.35
2023-03-29T21:07:57.015Z,13.33
2023-03-29T21:10:18.803Z,13.31
2023-03-29T21:12:41.189Z,13.27
2023-03-29T21:15:03.579Z,13.23
2023-03-29T21:17:25.367Z,13.19
2023-03-29T21:19:48.112Z,13.15
2023-03-29T21:22:13.710Z,13.13
2023-03-29T21:24:36.588Z,13.10
2023-03-29T21:26:58.560Z,13.09
2023-03-29T21:29:20.441Z,13.07
2023-03-29T21:31:42.146Z,13.02
2023-03-29T21:34:03.917Z,13.03
2023-03-29T21:36:25.690Z,13.03
2023-03-29T21:38:47.372Z,13.03
2023-03-29T21:41:10.827Z,13.00
2023-03-29T21:43:32.455Z,13.00
2023-03-29T21:45:54.204Z,13.00
2023-03-29T21:48:16.867Z,13.00
2023-03-29T21:50:38.635Z,12.99
2023-03-29T21:53:01.907Z,12.99
2023-03-29T21:55:23.563Z,12.96
2023-03-29T21:57:45.805Z,12.97
2023-03-29T22:00:11.346Z,12.99
2023-03-29T22:02:33.274Z,13.00
2023-03-29T22:04:54.918Z,13.03
2023-03-29T22:07:17.287Z,13.07
2023-03-29T22:09:41.403Z,13.12
2023-03-29T22:12:03.663Z,13.14
2023-03-29T22:14:25.371Z,13.19
2023-03-29T22:16:47.150Z,13.20
2023-03-29T22:19:08.777Z,13.24
2023-03-29T22:21:31.251Z,13.28
2023-03-29T22:23:55.412Z,13.32
2023-03-29T22:26:19.911Z,13.37
2023-03-29T22:28:41.871Z,13.38
2023-03-29T22:31:09.425Z,13.38
2023-03-29T22:33:32.680Z,13.38
2023-03-29T22:35:54.374Z,13.41
2023-03-29T22:38:15.977Z,13.42
2023-03-29T22:40:40.761Z,13.42
2023-03-29T22:43:05.281Z,13.45
2023-03-29T22:45:27.697Z,13.45
2023-03-29T22:47:49.434Z,13.41
2023-03-29T22:50:11.214Z,13.43
2023-03-29T22:52:32.793Z,13.45
2023-03-29T22:54:54.372Z,13.47
2023-03-29T22:57:16.022Z,13.42
2023-03-29T22:59:37.623Z,13.43
2023-03-29T23:04:20.661Z,13.45
2023-03-29T23:06:42.271Z,13.44
2023-03-29T23:09:04.022Z,13.44
2023-03-29T23:11:26.219Z,13.42
2023-03-29T23:13:48.869Z,13.43
2023-03-29T23:16:10.657Z,13.42
2023-03-29T23:18:34.558Z,13.42
2023-03-29T23:20:58.351Z,13.43
2023-03-29T23:23:20.971Z,13.42
2023-03-29T23:25:45.680Z,13.45
2023-03-29T23:28:07.301Z,13.46
2023-03-29T23:30:29.809Z,13.46
2023-03-29T23:32:54.846Z,13.45
2023-03-29T23:35:16.698Z,13.46
2023-03-29T23:37:38.375Z,13.47
2023-03-29T23:39:59.889Z,13.48
2023-03-29T23:42:22.585Z,13.48
2023-03-29T23:44:44.247Z,13.48
2023-03-29T23:47:06.228Z,13.47
2023-03-29T23:49:28.156Z,13.44
2023-03-29T23:51:50.468Z,13.44
2023-03-29T23:54:12.844Z,13.42
2023-03-29T23:56:34.391Z,13.42
2023-03-29T23:58:56.227Z,13.44
